ITY170 LPPT-LIMC
Flight info
| Callsign | ITY170 |
|---|---|
| Flight time | 1h 56m |
| Altitude | 36000 |
| Route | LPPT/02 ORVED DCT UREDI/N0470F380 N870 PONEN DCT SEROX DCT VILAR/N0472F370 DCT KARES/N0471F380 DCT BISES DCT BCN DCT SALON DCT AGENA DCT BODEQ DCT LUMAS DCT NIBIK DCT NETUP DCT STP DCT RAPED DCT PIGOS DCT EKSID DCT NOSTA DCT NOPMU DCT EGHIN DCT ANAKI/N0403F180 P860 DEVOX DEVOX3E |
| Aircraft | A339/H-SDE3FGHIRWY/5566 |
Departure
| Time | 2026-05-07 16:16 |
|---|---|
| Airport | Lisbon Humberto Delgado Airport (LPPT) |
Arrival
| Time | 2026-05-07 18:12 |
|---|---|
| Airport | Milan Malpensa International Airport (LIMC) |
| Time | Latitude | Longitude | Altitude | Speed | Heading |
|---|---|---|---|---|---|
| 2026-05-07 16:16 | 38.81108 | -8.77896 | 15852 ft | 383 kts | 52° |
| 2026-05-07 16:16 | 38.82772 | -8.75209 | 16370 ft | 386 kts | 51° |
| 2026-05-07 16:16 | 38.84447 | -8.72503 | 16860 ft | 390 kts | 51° |
| 2026-05-07 16:17 | 38.86136 | -8.69769 | 17365 ft | 392 kts | 51° |
| 2026-05-07 16:17 | 38.87840 | -8.67013 | 17896 ft | 395 kts | 51° |
| 2026-05-07 16:17 | 38.89555 | -8.64237 | 18350 ft | 399 kts | 51° |
| 2026-05-07 16:17 | 38.91285 | -8.61434 | 18804 ft | 402 kts | 51° |
| 2026-05-07 16:18 | 38.93029 | -8.58607 | 19239 ft | 405 kts | 51° |
| 2026-05-07 16:18 | 38.94781 | -8.55764 | 19685 ft | 408 kts | 51° |
| 2026-05-07 16:18 | 38.96546 | -8.52897 | 20145 ft | 411 kts | 51° |
| 2026-05-07 16:18 | 38.98329 | -8.49998 | 20604 ft | 414 kts | 51° |
| 2026-05-07 16:19 | 39.00103 | -8.47112 | 21035 ft | 418 kts | 51° |
| 2026-05-07 16:19 | 39.01912 | -8.44167 | 21493 ft | 421 kts | 51° |
| 2026-05-07 16:19 | 39.03755 | -8.41162 | 21926 ft | 425 kts | 51° |
| 2026-05-07 16:19 | 39.05567 | -8.38206 | 22423 ft | 427 kts | 51° |
| 2026-05-07 16:20 | 39.07414 | -8.35190 | 22882 ft | 430 kts | 51° |
| 2026-05-07 16:20 | 39.09276 | -8.32148 | 23337 ft | 434 kts | 51° |
| 2026-05-07 16:20 | 39.11146 | -8.29088 | 23760 ft | 436 kts | 51° |
| 2026-05-07 16:20 | 39.13030 | -8.26003 | 24169 ft | 439 kts | 50° |
| 2026-05-07 16:21 | 39.14919 | -8.22907 | 24554 ft | 442 kts | 50° |
| 2026-05-07 16:21 | 39.16827 | -8.19775 | 24955 ft | 444 kts | 50° |
| 2026-05-07 16:21 | 39.18744 | -8.16627 | 25327 ft | 447 kts | 50° |
| 2026-05-07 16:21 | 39.20668 | -8.13465 | 25713 ft | 450 kts | 50° |
| 2026-05-07 16:22 | 39.22607 | -8.10275 | 26085 ft | 453 kts | 50° |
| 2026-05-07 16:22 | 39.24559 | -8.07061 | 26447 ft | 456 kts | 50° |
| 2026-05-07 16:22 | 39.26480 | -8.03777 | 26798 ft | 461 kts | 54° |
| 2026-05-07 16:22 | 39.28118 | -8.00190 | 27145 ft | 465 kts | 62° |
| 2026-05-07 16:23 | 39.29386 | -7.96386 | 27504 ft | 469 kts | 69° |
| 2026-05-07 16:23 | 39.30500 | -7.92410 | 27824 ft | 472 kts | 69° |
| 2026-05-07 16:23 | 39.31645 | -7.88409 | 28169 ft | 476 kts | 69° |
| 2026-05-07 16:23 | 39.32805 | -7.84393 | 28519 ft | 478 kts | 69° |
| 2026-05-07 16:24 | 39.33975 | -7.80344 | 28852 ft | 481 kts | 69° |
| 2026-05-07 16:24 | 39.35151 | -7.76268 | 29179 ft | 484 kts | 69° |
| 2026-05-07 16:24 | 39.36328 | -7.72176 | 29489 ft | 487 kts | 69° |
| 2026-05-07 16:24 | 39.37509 | -7.68059 | 29833 ft | 490 kts | 69° |
| 2026-05-07 16:25 | 39.38781 | -7.63966 | 30099 ft | 492 kts | 63° |
| 2026-05-07 16:25 | 39.40320 | -7.60002 | 30409 ft | 494 kts | 61° |
| 2026-05-07 16:25 | 39.41866 | -7.56026 | 30710 ft | 496 kts | 62° |
| 2026-05-07 16:25 | 39.43395 | -7.52072 | 31025 ft | 498 kts | 62° |
| 2026-05-07 16:26 | 39.44965 | -7.47992 | 31340 ft | 501 kts | 62° |
| 2026-05-07 16:26 | 39.46499 | -7.43998 | 31611 ft | 504 kts | 61° |
| 2026-05-07 16:26 | 39.48064 | -7.39918 | 31899 ft | 506 kts | 61° |
| 2026-05-07 16:26 | 39.49102 | -7.37206 | 32107 ft | 507 kts | 61° |
| 2026-05-07 16:27 | 39.51206 | -7.31710 | 32448 ft | 510 kts | 61° |
| 2026-05-07 16:27 | 39.52787 | -7.27570 | 32660 ft | 512 kts | 61° |
| 2026-05-07 16:27 | 39.54365 | -7.23434 | 32869 ft | 514 kts | 61° |
| 2026-05-07 16:27 | 39.55954 | -7.19264 | 33060 ft | 516 kts | 61° |
| 2026-05-07 16:28 | 39.57543 | -7.15088 | 33263 ft | 517 kts | 61° |
| 2026-05-07 16:28 | 39.59134 | -7.10898 | 33432 ft | 518 kts | 61° |
| 2026-05-07 16:28 | 39.60724 | -7.06706 | 33640 ft | 518 kts | 61° |
| 2026-05-07 16:28 | 39.62315 | -7.02507 | 33863 ft | 518 kts | 61° |
| 2026-05-07 16:29 | 39.63899 | -6.98320 | 34069 ft | 517 kts | 61° |
| 2026-05-07 16:29 | 39.65462 | -6.94181 | 34269 ft | 516 kts | 61° |
| 2026-05-07 16:29 | 39.67040 | -6.89997 | 34463 ft | 516 kts | 61° |
| 2026-05-07 16:29 | 39.68614 | -6.85818 | 34672 ft | 515 kts | 61° |
| 2026-05-07 16:30 | 39.70187 | -6.81638 | 34872 ft | 514 kts | 61° |
| 2026-05-07 16:30 | 39.71760 | -6.77450 | 35068 ft | 514 kts | 61° |
| 2026-05-07 16:30 | 39.73324 | -6.73282 | 35247 ft | 514 kts | 61° |
| 2026-05-07 16:30 | 39.74890 | -6.69103 | 35440 ft | 513 kts | 61° |
| 2026-05-07 16:31 | 39.76428 | -6.64993 | 35655 ft | 512 kts | 61° |
| 2026-05-07 16:31 | 39.77987 | -6.60825 | 35802 ft | 512 kts | 61° |
| 2026-05-07 16:31 | 39.79545 | -6.56648 | 35831 ft | 511 kts | 61° |
| 2026-05-07 16:32 | 39.82646 | -6.48321 | 35830 ft | 510 kts | 61° |
| 2026-05-07 16:32 | 39.85739 | -6.39991 | 35832 ft | 511 kts | 62° |
| 2026-05-07 16:33 | 39.88575 | -6.31501 | 35832 ft | 511 kts | 64° |
| 2026-05-07 16:33 | 39.91413 | -6.23015 | 35834 ft | 512 kts | 64° |
| 2026-05-07 16:34 | 39.94250 | -6.14495 | 35841 ft | 512 kts | 64° |
| 2026-05-07 16:34 | 39.97051 | -6.06030 | 35846 ft | 512 kts | 64° |
| 2026-05-07 16:35 | 39.99868 | -5.97492 | 35845 ft | 512 kts | 64° |
| 2026-05-07 16:35 | 40.02675 | -5.88955 | 35849 ft | 512 kts | 64° |
| 2026-05-07 16:36 | 40.05477 | -5.80410 | 35859 ft | 512 kts | 64° |
| 2026-05-07 16:36 | 40.07804 | -5.73296 | 35860 ft | 512 kts | 64° |
| 2026-05-07 16:37 | 40.11045 | -5.63352 | 35862 ft | 512 kts | 65° |
| 2026-05-07 16:37 | 40.13377 | -5.56174 | 35865 ft | 512 kts | 65° |
| 2026-05-07 16:38 | 40.16133 | -5.47669 | 35865 ft | 511 kts | 65° |
| 2026-05-07 16:38 | 40.18899 | -5.39109 | 35865 ft | 511 kts | 65° |
| 2026-05-07 16:39 | 40.21654 | -5.30555 | 35872 ft | 510 kts | 65° |
| 2026-05-07 16:39 | 40.24404 | -5.21991 | 35872 ft | 509 kts | 65° |
| 2026-05-07 16:40 | 40.27140 | -5.13436 | 35876 ft | 509 kts | 65° |
| 2026-05-07 16:40 | 40.29863 | -5.04902 | 35883 ft | 508 kts | 65° |
| 2026-05-07 16:41 | 40.32588 | -4.96331 | 35886 ft | 508 kts | 65° |
| 2026-05-07 16:41 | 40.35300 | -4.87779 | 35889 ft | 508 kts | 65° |
| 2026-05-07 16:42 | 40.38006 | -4.79219 | 35873 ft | 508 kts | 66° |
| 2026-05-07 16:42 | 40.40687 | -4.70710 | 35880 ft | 507 kts | 66° |
| 2026-05-07 16:43 | 40.43205 | -4.62047 | 35890 ft | 507 kts | 68° |
| 2026-05-07 16:43 | 40.45661 | -4.53363 | 35890 ft | 507 kts | 68° |
| 2026-05-07 16:44 | 40.48113 | -4.44681 | 35893 ft | 507 kts | 68° |
| 2026-05-07 16:44 | 40.50545 | -4.35997 | 35897 ft | 507 kts | 69° |
| 2026-05-07 16:45 | 40.52970 | -4.27302 | 35910 ft | 506 kts | 69° |
| 2026-05-07 16:45 | 40.55384 | -4.18612 | 35911 ft | 506 kts | 69° |
| 2026-05-07 16:46 | 40.57779 | -4.09963 | 35909 ft | 506 kts | 69° |
| 2026-05-07 16:46 | 40.60180 | -4.01265 | 35916 ft | 505 kts | 69° |
| 2026-05-07 16:47 | 40.62571 | -3.92570 | 35922 ft | 506 kts | 69° |
| 2026-05-07 16:47 | 40.64959 | -3.83857 | 35920 ft | 505 kts | 69° |
| 2026-05-07 16:48 | 40.67340 | -3.75142 | 35920 ft | 506 kts | 70° |
| 2026-05-07 16:48 | 40.69714 | -3.66420 | 35921 ft | 506 kts | 70° |
| 2026-05-07 16:49 | 40.72082 | -3.57686 | 35922 ft | 506 kts | 70° |
| 2026-05-07 16:49 | 40.74447 | -3.48940 | 35921 ft | 506 kts | 70° |
| 2026-05-07 16:50 | 40.76793 | -3.40229 | 35926 ft | 506 kts | 70° |
| 2026-05-07 16:50 | 40.79143 | -3.31473 | 35928 ft | 507 kts | 70° |
| 2026-05-07 16:51 | 40.81488 | -3.22702 | 35928 ft | 507 kts | 70° |
| 2026-05-07 16:51 | 40.83827 | -3.13926 | 35930 ft | 507 kts | 70° |
| 2026-05-07 16:52 | 40.86163 | -3.05133 | 35927 ft | 507 kts | 70° |
| 2026-05-07 16:52 | 40.88489 | -2.96340 | 35927 ft | 507 kts | 70° |
| 2026-05-07 16:53 | 40.90815 | -2.87517 | 35924 ft | 507 kts | 70° |
| 2026-05-07 16:53 | 40.93130 | -2.78704 | 35922 ft | 507 kts | 70° |
| 2026-05-07 16:54 | 40.95429 | -2.69923 | 35921 ft | 508 kts | 71° |
| 2026-05-07 16:54 | 40.97727 | -2.61096 | 35917 ft | 508 kts | 72° |
| 2026-05-07 16:55 | 40.99534 | -2.52016 | 35922 ft | 512 kts | 76° |
| 2026-05-07 16:55 | 41.01294 | -2.42834 | 35919 ft | 517 kts | 76° |
| 2026-05-07 16:56 | 41.03051 | -2.33637 | 35923 ft | 520 kts | 76° |
| 2026-05-07 16:56 | 41.05692 | -2.19662 | 35926 ft | 521 kts | 76° |
| 2026-05-07 16:57 | 41.07442 | -2.10335 | 35925 ft | 521 kts | 76° |
| 2026-05-07 16:57 | 41.09174 | -2.01059 | 35926 ft | 522 kts | 76° |
| 2026-05-07 16:58 | 41.10917 | -1.91686 | 35925 ft | 522 kts | 76° |
| 2026-05-07 16:58 | 41.12649 | -1.82321 | 35925 ft | 523 kts | 76° |
| 2026-05-07 16:59 | 41.14375 | -1.72942 | 35925 ft | 523 kts | 77° |
| 2026-05-07 16:59 | 41.16094 | -1.63555 | 35922 ft | 524 kts | 77° |
| 2026-05-07 17:00 | 41.17791 | -1.54245 | 35921 ft | 524 kts | 77° |
| 2026-05-07 17:00 | 41.19498 | -1.44831 | 35925 ft | 525 kts | 77° |
| 2026-05-07 17:01 | 41.20347 | -1.40128 | 35318 ft | 514 kts | 76° |
| 2026-05-07 17:01 | 41.21162 | -1.35604 | 36103 ft | 503 kts | 77° |
| 2026-05-07 17:01 | 41.21983 | -1.31041 | 35918 ft | 513 kts | 77° |
| 2026-05-07 17:01 | 41.22815 | -1.26403 | 35919 ft | 517 kts | 77° |
| 2026-05-07 17:02 | 41.24485 | -1.17054 | 35917 ft | 522 kts | 77° |
| 2026-05-07 17:02 | 41.26151 | -1.07679 | 35914 ft | 525 kts | 77° |
| 2026-05-07 17:03 | 41.27826 | -0.98204 | 35912 ft | 527 kts | 77° |
| 2026-05-07 17:03 | 41.29496 | -0.88712 | 35907 ft | 526 kts | 77° |
| 2026-05-07 17:04 | 41.31147 | -0.79282 | 35908 ft | 527 kts | 77° |
| 2026-05-07 17:04 | 41.32800 | -0.69784 | 35909 ft | 527 kts | 77° |
| 2026-05-07 17:05 | 41.34448 | -0.60268 | 35905 ft | 526 kts | 77° |
| 2026-05-07 17:05 | 41.36499 | -0.50924 | 35903 ft | 526 kts | 68° |
| 2026-05-07 17:06 | 41.39199 | -0.41854 | 35912 ft | 527 kts | 68° |
| 2026-05-07 17:06 | 41.41878 | -0.32743 | 35921 ft | 529 kts | 68° |
| 2026-05-07 17:07 | 41.44564 | -0.23591 | 35922 ft | 530 kts | 68° |
| 2026-05-07 17:07 | 41.47247 | -0.14425 | 35918 ft | 531 kts | 68° |
| 2026-05-07 17:08 | 41.49921 | -0.05243 | 35917 ft | 531 kts | 69° |
| 2026-05-07 17:08 | 41.52574 | 0.03903 | 35913 ft | 532 kts | 69° |
| 2026-05-07 17:09 | 41.55234 | 0.13111 | 35922 ft | 532 kts | 69° |
| 2026-05-07 17:09 | 41.57887 | 0.22328 | 35924 ft | 532 kts | 69° |
| 2026-05-07 17:10 | 41.60533 | 0.31554 | 35929 ft | 532 kts | 69° |
| 2026-05-07 17:10 | 41.63181 | 0.40817 | 35937 ft | 532 kts | 69° |
| 2026-05-07 17:11 | 41.65820 | 0.50082 | 35941 ft | 533 kts | 69° |
| 2026-05-07 17:11 | 41.68434 | 0.59297 | 35936 ft | 533 kts | 69° |
| 2026-05-07 17:12 | 41.71054 | 0.68564 | 35939 ft | 533 kts | 69° |
| 2026-05-07 17:12 | 41.73671 | 0.77858 | 35935 ft | 533 kts | 69° |
| 2026-05-07 17:13 | 41.76280 | 0.87151 | 35939 ft | 533 kts | 69° |
| 2026-05-07 17:13 | 41.78883 | 0.96463 | 35945 ft | 533 kts | 69° |
| 2026-05-07 17:14 | 41.81480 | 1.05783 | 35941 ft | 533 kts | 70° |
| 2026-05-07 17:14 | 41.84055 | 1.15060 | 35915 ft | 534 kts | 70° |
| 2026-05-07 17:15 | 41.86639 | 1.24405 | 35916 ft | 534 kts | 70° |
| 2026-05-07 17:15 | 41.89217 | 1.33765 | 35937 ft | 534 kts | 70° |
| 2026-05-07 17:16 | 41.91785 | 1.43119 | 35939 ft | 534 kts | 70° |
| 2026-05-07 17:16 | 41.94345 | 1.52485 | 35941 ft | 534 kts | 70° |
| 2026-05-07 17:17 | 41.96902 | 1.61873 | 35951 ft | 535 kts | 70° |
| 2026-05-07 17:17 | 41.99436 | 1.71211 | 35934 ft | 536 kts | 71° |
| 2026-05-07 17:18 | 42.01981 | 1.80628 | 35957 ft | 535 kts | 71° |
| 2026-05-07 17:18 | 42.04516 | 1.90044 | 35964 ft | 536 kts | 71° |
| 2026-05-07 17:19 | 42.07049 | 1.99486 | 35958 ft | 536 kts | 71° |
| 2026-05-07 17:19 | 42.09574 | 2.08930 | 35959 ft | 536 kts | 71° |
| 2026-05-07 17:20 | 42.12094 | 2.18401 | 35960 ft | 536 kts | 71° |
| 2026-05-07 17:20 | 42.14604 | 2.27868 | 35960 ft | 537 kts | 71° |
| 2026-05-07 17:21 | 42.17112 | 2.37361 | 35958 ft | 537 kts | 71° |
| 2026-05-07 17:21 | 42.19609 | 2.46853 | 35961 ft | 537 kts | 71° |
| 2026-05-07 17:22 | 42.22099 | 2.56359 | 35942 ft | 538 kts | 72° |
| 2026-05-07 17:22 | 42.24166 | 2.64272 | 35932 ft | 538 kts | 72° |
| 2026-05-07 17:23 | 42.27049 | 2.75353 | 35961 ft | 538 kts | 72° |
| 2026-05-07 17:23 | 42.29519 | 2.84892 | 35961 ft | 538 kts | 72° |
| 2026-05-07 17:24 | 42.31584 | 2.92899 | 35960 ft | 539 kts | 72° |
| 2026-05-07 17:24 | 42.34032 | 3.02424 | 35963 ft | 539 kts | 72° |
| 2026-05-07 17:25 | 42.36492 | 3.12033 | 35941 ft | 540 kts | 72° |
| 2026-05-07 17:25 | 42.38938 | 3.21620 | 35960 ft | 540 kts | 72° |
| 2026-05-07 17:26 | 42.41379 | 3.31234 | 35959 ft | 540 kts | 72° |
| 2026-05-07 17:26 | 42.43794 | 3.40786 | 35961 ft | 540 kts | 72° |
| 2026-05-07 17:27 | 42.46224 | 3.50432 | 35963 ft | 540 kts | 72° |
| 2026-05-07 17:27 | 42.48645 | 3.60082 | 35939 ft | 541 kts | 73° |
| 2026-05-07 17:28 | 42.51055 | 3.69726 | 35936 ft | 541 kts | 73° |
| 2026-05-07 17:28 | 42.53461 | 3.79400 | 35935 ft | 541 kts | 73° |
| 2026-05-07 17:29 | 42.55857 | 3.89044 | 35929 ft | 539 kts | 74° |
| 2026-05-07 17:29 | 42.58234 | 3.98696 | 35927 ft | 539 kts | 74° |
| 2026-05-07 17:30 | 42.60609 | 4.08366 | 35929 ft | 540 kts | 74° |
| 2026-05-07 17:30 | 42.63667 | 4.17621 | 35928 ft | 542 kts | 65° |
| 2026-05-07 17:31 | 42.67047 | 4.26860 | 35928 ft | 543 kts | 65° |
| 2026-05-07 17:31 | 42.70311 | 4.36032 | 35932 ft | 543 kts | 66° |
| 2026-05-07 17:32 | 42.73555 | 4.45305 | 35933 ft | 543 kts | 66° |
| 2026-05-07 17:32 | 42.76788 | 4.54597 | 35936 ft | 543 kts | 66° |
| 2026-05-07 17:33 | 42.80012 | 4.63893 | 35938 ft | 543 kts | 66° |
| 2026-05-07 17:33 | 42.83228 | 4.73195 | 35946 ft | 542 kts | 66° |
| 2026-05-07 17:34 | 42.86436 | 4.82503 | 35938 ft | 542 kts | 66° |
| 2026-05-07 17:34 | 42.89636 | 4.91820 | 35937 ft | 542 kts | 66° |
| 2026-05-07 17:35 | 42.92831 | 5.01154 | 35940 ft | 542 kts | 66° |
| 2026-05-07 17:35 | 42.95992 | 5.10422 | 35942 ft | 542 kts | 66° |
| 2026-05-07 17:36 | 42.99169 | 5.19769 | 35938 ft | 542 kts | 66° |
| 2026-05-07 17:36 | 43.02340 | 5.29128 | 35935 ft | 542 kts | 66° |
| 2026-05-07 17:37 | 43.05507 | 5.38507 | 35937 ft | 543 kts | 66° |
| 2026-05-07 17:37 | 43.08662 | 5.47886 | 35937 ft | 543 kts | 66° |
| 2026-05-07 17:38 | 43.11795 | 5.57229 | 35933 ft | 543 kts | 66° |
| 2026-05-07 17:38 | 43.14937 | 5.66635 | 35939 ft | 543 kts | 66° |
| 2026-05-07 17:39 | 43.18074 | 5.76057 | 35929 ft | 543 kts | 66° |
| 2026-05-07 17:39 | 43.21209 | 5.85504 | 35927 ft | 544 kts | 66° |
| 2026-05-07 17:40 | 43.24337 | 5.94951 | 35931 ft | 544 kts | 66° |
| 2026-05-07 17:40 | 43.27700 | 6.04279 | 35949 ft | 544 kts | 64° |
| 2026-05-07 17:41 | 43.31087 | 6.13495 | 35945 ft | 544 kts | 64° |
| 2026-05-07 17:41 | 43.34456 | 6.22814 | 35941 ft | 545 kts | 64° |
| 2026-05-07 17:42 | 43.37809 | 6.32171 | 35939 ft | 545 kts | 64° |
| 2026-05-07 17:42 | 43.41151 | 6.41535 | 35937 ft | 545 kts | 64° |
| 2026-05-07 17:43 | 43.44493 | 6.50923 | 35941 ft | 546 kts | 64° |
| 2026-05-07 17:43 | 43.47805 | 6.60260 | 35943 ft | 546 kts | 64° |
| 2026-05-07 17:44 | 43.51133 | 6.69677 | 35944 ft | 547 kts | 64° |
| 2026-05-07 17:44 | 43.54463 | 6.79131 | 35965 ft | 547 kts | 64° |
| 2026-05-07 17:45 | 43.57777 | 6.88571 | 35965 ft | 547 kts | 64° |
| 2026-05-07 17:45 | 43.61077 | 6.98005 | 35966 ft | 547 kts | 64° |
| 2026-05-07 17:46 | 43.64365 | 7.07433 | 35967 ft | 547 kts | 64° |
| 2026-05-07 17:46 | 43.67661 | 7.16919 | 35967 ft | 548 kts | 64° |
| 2026-05-07 17:47 | 43.70949 | 7.26416 | 35966 ft | 548 kts | 64° |
| 2026-05-07 17:47 | 43.74243 | 7.35959 | 35969 ft | 548 kts | 64° |
| 2026-05-07 17:48 | 43.77517 | 7.45484 | 35972 ft | 548 kts | 64° |
| 2026-05-07 17:48 | 43.80767 | 7.54969 | 35981 ft | 548 kts | 64° |
| 2026-05-07 17:49 | 43.84018 | 7.64488 | 35945 ft | 539 kts | 64° |
| 2026-05-07 17:49 | 43.85608 | 7.69162 | 35742 ft | 533 kts | 64° |
| 2026-05-07 17:49 | 43.87187 | 7.73811 | 35492 ft | 533 kts | 64° |
| 2026-05-07 17:50 | 43.88770 | 7.78474 | 35245 ft | 536 kts | 64° |
| 2026-05-07 17:50 | 43.90352 | 7.83144 | 34988 ft | 536 kts | 64° |
| 2026-05-07 17:50 | 43.91937 | 7.87834 | 34755 ft | 537 kts | 64° |
| 2026-05-07 17:50 | 43.93521 | 7.92527 | 34505 ft | 537 kts | 64° |
| 2026-05-07 17:51 | 43.95099 | 7.97211 | 34282 ft | 538 kts | 64° |
| 2026-05-07 17:51 | 43.96685 | 8.01928 | 34052 ft | 539 kts | 64° |
| 2026-05-07 17:51 | 43.98268 | 8.06643 | 33780 ft | 539 kts | 64° |
| 2026-05-07 17:51 | 43.99850 | 8.11362 | 33497 ft | 538 kts | 63° |
| 2026-05-07 17:52 | 44.01428 | 8.16076 | 33237 ft | 539 kts | 64° |
| 2026-05-07 17:52 | 44.03006 | 8.20799 | 32916 ft | 538 kts | 64° |
| 2026-05-07 17:52 | 44.04583 | 8.25527 | 32202 ft | 539 kts | 64° |
| 2026-05-07 17:52 | 44.06156 | 8.30253 | 31499 ft | 536 kts | 64° |
| 2026-05-07 17:53 | 44.07696 | 8.34892 | 30873 ft | 533 kts | 63° |
| 2026-05-07 17:53 | 44.09261 | 8.39610 | 30263 ft | 528 kts | 63° |
| 2026-05-07 17:53 | 44.10771 | 8.44172 | 29661 ft | 522 kts | 63° |
| 2026-05-07 17:53 | 44.12278 | 8.48728 | 29137 ft | 514 kts | 64° |
| 2026-05-07 17:54 | 44.13762 | 8.53223 | 28590 ft | 507 kts | 64° |
| 2026-05-07 17:54 | 44.15223 | 8.57656 | 27949 ft | 499 kts | 64° |
| 2026-05-07 17:54 | 44.16659 | 8.62020 | 27317 ft | 492 kts | 64° |
| 2026-05-07 17:54 | 44.18270 | 8.66162 | 26660 ft | 482 kts | 54° |
| 2026-05-07 17:55 | 44.20376 | 8.69722 | 26026 ft | 471 kts | 42° |
| 2026-05-07 17:55 | 44.22887 | 8.72565 | 25232 ft | 462 kts | 30° |
| 2026-05-07 17:55 | 44.25710 | 8.74581 | 24400 ft | 451 kts | 17° |
| 2026-05-07 17:55 | 44.28705 | 8.75674 | 23600 ft | 440 kts | 5° |
| 2026-05-07 17:56 | 44.31725 | 8.75801 | 22652 ft | 429 kts | 352° |
| 2026-05-07 17:56 | 44.34685 | 8.75610 | 21721 ft | 425 kts | 0° |
| 2026-05-07 17:56 | 44.37589 | 8.76305 | 20823 ft | 423 kts | 14° |
| 2026-05-07 17:56 | 44.40339 | 8.77738 | 19961 ft | 419 kts | 21° |
| 2026-05-07 17:57 | 44.42960 | 8.79347 | 19126 ft | 413 kts | 22° |
| 2026-05-07 17:57 | 44.44764 | 8.80264 | 18561 ft | 407 kts | 13° |
| 2026-05-07 17:57 | 44.48422 | 8.80699 | 17354 ft | 394 kts | 352° |
| 2026-05-07 17:57 | 44.51052 | 8.79839 | 16469 ft | 384 kts | 339° |
| 2026-05-07 17:58 | 44.53539 | 8.78580 | 15581 ft | 378 kts | 337° |
| 2026-05-07 17:58 | 44.55990 | 8.77320 | 14726 ft | 373 kts | 338° |
| 2026-05-07 17:58 | 44.58438 | 8.76154 | 13775 ft | 368 kts | 340° |
| 2026-05-07 17:58 | 44.60869 | 8.75078 | 12624 ft | 366 kts | 341° |
| 2026-05-07 17:59 | 44.63299 | 8.74064 | 11474 ft | 363 kts | 343° |
| 2026-05-07 17:59 | 44.65795 | 8.73638 | 10363 ft | 362 kts | 0° |
| 2026-05-07 17:59 | 44.68266 | 8.74250 | 9241 ft | 359 kts | 13° |
| 2026-05-07 17:59 | 44.70655 | 8.75200 | 8093 ft | 355 kts | 15° |
| 2026-05-07 18:00 | 44.73025 | 8.76190 | 7264 ft | 352 kts | 16° |
| 2026-05-07 18:00 | 44.75353 | 8.77160 | 6644 ft | 345 kts | 16° |
| 2026-05-07 18:00 | 44.77656 | 8.78108 | 6347 ft | 348 kts | 16° |
| 2026-05-07 18:00 | 44.79949 | 8.79046 | 6129 ft | 345 kts | 16° |
| 2026-05-07 18:01 | 44.82247 | 8.79980 | 5616 ft | 343 kts | 16° |
| 2026-05-07 18:01 | 44.84532 | 8.80905 | 5268 ft | 342 kts | 16° |
| 2026-05-07 18:01 | 44.86792 | 8.81818 | 5137 ft | 344 kts | 16° |
| 2026-05-07 18:01 | 44.89087 | 8.82746 | 5005 ft | 342 kts | 16° |
| 2026-05-07 18:02 | 44.93625 | 8.84584 | 4189 ft | 337 kts | 16° |
| 2026-05-07 18:02 | 44.95882 | 8.85501 | 4034 ft | 338 kts | 16° |
| 2026-05-07 18:02 | 44.98149 | 8.86423 | 3998 ft | 339 kts | 16° |
| 2026-05-07 18:03 | 45.00421 | 8.87347 | 3997 ft | 340 kts | 15° |
| 2026-05-07 18:03 | 45.02668 | 8.88238 | 3999 ft | 338 kts | 13° |
| 2026-05-07 18:03 | 45.05006 | 8.88577 | 4003 ft | 338 kts | 358° |
| 2026-05-07 18:03 | 45.07325 | 8.88117 | 3999 ft | 337 kts | 347° |
| 2026-05-07 18:04 | 45.09623 | 8.87449 | 4000 ft | 337 kts | 348° |
| 2026-05-07 18:04 | 45.11926 | 8.86799 | 4003 ft | 337 kts | 348° |
| 2026-05-07 18:04 | 45.14233 | 8.86161 | 3999 ft | 337 kts | 348° |
| 2026-05-07 18:04 | 45.16538 | 8.85534 | 3994 ft | 337 kts | 348° |
| 2026-05-07 18:05 | 45.18846 | 8.84907 | 4001 ft | 337 kts | 348° |
| 2026-05-07 18:05 | 45.21133 | 8.84367 | 3999 ft | 323 kts | 353° |
| 2026-05-07 18:05 | 45.23298 | 8.84087 | 4001 ft | 306 kts | 353° |
| 2026-05-07 18:05 | 45.25314 | 8.83700 | 4014 ft | 283 kts | 350° |
| 2026-05-07 18:06 | 45.27158 | 8.83234 | 4017 ft | 262 kts | 348° |
| 2026-05-07 18:06 | 45.28991 | 8.82731 | 4019 ft | 270 kts | 348° |
| 2026-05-07 18:06 | 45.30831 | 8.82229 | 4022 ft | 268 kts | 348° |
| 2026-05-07 18:06 | 45.32673 | 8.81723 | 4025 ft | 269 kts | 348° |
| 2026-05-07 18:07 | 45.34510 | 8.81218 | 4023 ft | 270 kts | 348° |
| 2026-05-07 18:07 | 45.36350 | 8.80714 | 4019 ft | 269 kts | 348° |
| 2026-05-07 18:07 | 45.38191 | 8.80210 | 4023 ft | 270 kts | 348° |
| 2026-05-07 18:07 | 45.40028 | 8.79703 | 4020 ft | 266 kts | 348° |
| 2026-05-07 18:08 | 45.41772 | 8.79225 | 4007 ft | 242 kts | 348° |
| 2026-05-07 18:08 | 45.43350 | 8.78791 | 4021 ft | 221 kts | 348° |
| 2026-05-07 18:08 | 45.44803 | 8.78391 | 4003 ft | 203 kts | 348° |
| 2026-05-07 18:08 | 45.46158 | 8.78016 | 3819 ft | 195 kts | 348° |
| 2026-05-07 18:09 | 45.47474 | 8.77651 | 3539 ft | 191 kts | 348° |
| 2026-05-07 18:09 | 45.48718 | 8.77310 | 3288 ft | 176 kts | 348° |
| 2026-05-07 18:09 | 45.49867 | 8.76994 | 3055 ft | 161 kts | 348° |
| 2026-05-07 18:09 | 45.50976 | 8.76687 | 2849 ft | 164 kts | 348° |
| 2026-05-07 18:10 | 45.52069 | 8.76385 | 2632 ft | 159 kts | 348° |
| 2026-05-07 18:10 | 45.53173 | 8.76079 | 2419 ft | 159 kts | 348° |
| 2026-05-07 18:10 | 45.54260 | 8.75780 | 2213 ft | 161 kts | 348° |
| 2026-05-07 18:10 | 45.54983 | 8.75580 | 2059 ft | 158 kts | 348° |
| 2026-05-07 18:11 | 45.56067 | 8.75280 | 1855 ft | 160 kts | 348° |
| 2026-05-07 18:11 | 45.57156 | 8.74979 | 1640 ft | 158 kts | 348° |
| 2026-05-07 18:11 | 45.58236 | 8.74679 | 1422 ft | 158 kts | 348° |
| 2026-05-07 18:11 | 45.59299 | 8.74386 | 1210 ft | 158 kts | 348° |
| 2026-05-07 18:12 | 45.60376 | 8.74086 | 990 ft | 157 kts | 348° |
| 2026-05-07 18:12 | 45.61448 | 8.73778 | 756 ft | 154 kts | 350° |
| 2026-05-07 18:12 | 45.62399 | 8.73518 | 727 ft | 114 kts | 349° |
| 2026-05-07 18:12 | 45.62921 | 8.73370 | 733 ft | 42 kts | 348° |
| 2026-05-07 18:13 | 45.63149 | 8.73242 | 737 ft | 30 kts | 322° |
| 2026-05-07 18:13 | 45.63273 | 8.73043 | 738 ft | 26 kts | 304° |
| 2026-05-07 18:13 | 45.63370 | 8.72840 | 742 ft | 24 kts | 301° |
| 2026-05-07 18:13 | 45.63380 | 8.72630 | 746 ft | 21 kts | 233° |
| 2026-05-07 18:14 | 45.63230 | 8.72514 | 744 ft | 29 kts | 212° |
| 2026-05-07 18:14 | 45.63055 | 8.72316 | 744 ft | 36 kts | 235° |
| 2026-05-07 18:14 | 45.62988 | 8.71943 | 746 ft | 39 kts | 259° |
| 2026-05-07 18:14 | 45.62964 | 8.71805 | 741 ft | 11 kts | 240° |
| 2026-05-07 18:15 | 45.62898 | 8.71765 | 740 ft | 13 kts | 175° |
| 2026-05-07 18:15 | 45.62788 | 8.71792 | 740 ft | 19 kts | 170° |
| 2026-05-07 18:15 | 45.62659 | 8.71821 | 739 ft | 4 kts | 204° |
| 2026-05-07 18:15 | 45.62654 | 8.71762 | 739 ft | 13 kts | 277° |
| 2026-05-07 18:16 | 45.62700 | 8.71713 | 740 ft | 4 kts | 331° |
| 2026-05-07 18:16 | 45.62726 | 8.71691 | 740 ft | 5 kts | 330° |
| 2026-05-07 18:16 | 45.62733 | 8.71685 | 741 ft | 0 kts | 330° |